Time;durP1;ratioP1;P1;durP2;ratioP2;P2;SDS_P1;SDS_P2;PMS_P1;PMS_P2;Temp;Humidity;BMP_temperature;BMP_pressure;BME280_temperature;BME280_humidity;BME280_pressure;Samples;Min_cycle;Max_cycle;Signal;HPM_P1;HPM_P2
2023/05/07 00:00:22;;;;;;;11.93;3.50;;;;;;;15.29;100.00;101501.56;5080284;28;20113;-65
2023/05/07 00:02:50;;;;;;;6.32;3.17;;;;;;;15.26;100.00;101499.41;5081863;28;20049;-64
2023/05/07 00:05:19;;;;;;;9.60;3.53;;;;;;;15.27;100.00;101502.97;5079517;28;20052;-63
2023/05/07 00:07:47;;;;;;;6.75;3.50;;;;;;;15.29;100.00;101503.50;5074888;28;20537;-65
2023/05/07 00:10:15;;;;;;;6.38;3.97;;;;;;;15.33;100.00;101504.59;5058929;28;20044;-64
2023/05/07 00:12:43;;;;;;;6.80;3.45;;;;;;;15.36;100.00;101501.28;5059872;28;20068;-69
2023/05/07 00:15:10;;;;;;;7.97;3.78;;;;;;;15.37;100.00;101499.34;5060510;28;20056;-63
2023/05/07 00:17:39;;;;;;;5.00;3.22;;;;;;;15.38;100.00;101493.56;5065448;28;20051;-63
2023/05/07 00:20:07;;;;;;;7.03;3.55;;;;;;;15.39;100.00;101494.38;5062204;28;20108;-64
2023/05/07 00:22:35;;;;;;;6.50;3.55;;;;;;;15.40;100.00;101496.03;5042741;28;20077;-65
2023/05/07 00:25:03;;;;;;;6.75;3.58;;;;;;;15.39;100.00;101497.94;5056704;28;20041;-65
2023/05/07 00:27:31;;;;;;;5.85;3.45;;;;;;;15.41;100.00;101492.19;5052424;28;20053;-66
2023/05/07 00:29:59;;;;;;;6.68;3.50;;;;;;;15.40;100.00;101485.88;5040482;28;20136;-66
2023/05/07 00:32:27;;;;;;;6.65;3.50;;;;;;;15.40;100.00;101485.06;5041734;28;20079;-63
2023/05/07 00:34:55;;;;;;;7.78;3.92;;;;;;;15.34;100.00;101479.59;5059391;28;20485;-64
2023/05/07 00:37:23;;;;;;;7.57;3.60;;;;;;;15.32;100.00;101480.97;5058920;28;20051;-64
2023/05/07 00:39:50;;;;;;;6.60;3.50;;;;;;;15.29;100.00;101476.03;5058251;28;20120;-65
2023/05/07 00:42:18;;;;;;;8.40;3.60;;;;;;;15.26;100.00;101477.44;5040005;28;20059;-65
2023/05/07 00:44:46;;;;;;;6.57;3.97;;;;;;;15.25;100.00;101475.81;5059440;28;20120;-65
2023/05/07 00:47:15;;;;;;;7.03;4.00;;;;;;;15.22;100.00;101470.88;5059124;28;20107;-65
2023/05/07 00:49:44;;;;;;;8.65;4.40;;;;;;;15.20;100.00;101473.09;5058354;28;20052;-64
2023/05/07 00:52:14;;;;;;;11.90;4.22;;;;;;;15.18;100.00;101469.81;5059745;28;20087;-65
2023/05/07 00:54:42;;;;;;;7.30;4.05;;;;;;;15.17;100.00;101470.91;5057320;28;20053;-63
2023/05/07 00:57:11;;;;;;;7.60;4.40;;;;;;;15.16;100.00;101465.72;5065485;28;20094;-64
2023/05/07 00:59:40;;;;;;;7.82;4.00;;;;;;;15.16;100.00;101466.53;5057971;28;20526;-64
2023/05/07 01:02:08;;;;;;;8.80;4.57;;;;;;;15.17;100.00;101461.84;5075456;28;20057;-64
2023/05/07 01:04:36;;;;;;;7.15;4.15;;;;;;;15.15;100.00;101462.13;5076065;28;20072;-64
2023/05/07 01:07:05;;;;;;;9.65;4.38;;;;;;;15.15;100.00;101459.38;5025091;28;20052;-65
2023/05/07 01:09:35;;;;;;;8.25;4.53;;;;;;;15.15;100.00;101464.88;5074613;28;20512;-65
2023/05/07 01:12:04;;;;;;;7.65;4.47;;;;;;;15.17;100.00;101467.34;5076394;28;20405;-64
2023/05/07 01:14:32;;;;;;;8.45;5.03;;;;;;;15.20;100.00;101456.63;5058642;28;20083;-67
2023/05/07 01:17:01;;;;;;;11.13;5.20;;;;;;;15.19;100.00;101463.19;5068849;28;20045;-65
2023/05/07 01:19:30;;;;;;;8.85;4.95;;;;;;;15.18;100.00;101458.84;5034349;28;20050;-64
2023/05/07 01:22:04;;;;;;;7.95;4.60;;;;;;;15.17;100.00;101456.34;5019081;28;20053;-64
2023/05/07 01:24:37;;;;;;;7.78;4.88;;;;;;;15.16;100.00;101465.72;5003193;28;20083;-64
2023/05/07 01:27:07;;;;;;;11.60;5.70;;;;;;;15.13;100.00;101456.94;5039492;28;20106;-63
2023/05/07 01:29:36;;;;;;;11.32;5.30;;;;;;;15.13;100.00;101461.59;5054462;28;20118;-63
2023/05/07 01:32:04;;;;;;;10.15;5.80;;;;;;;15.11;100.00;101458.31;5054484;28;20049;-65
2023/05/07 01:34:33;;;;;;;9.02;5.43;;;;;;;15.11;100.00;101452.84;5047386;28;20045;-63
2023/05/07 01:37:01;;;;;;;12.00;5.80;;;;;;;15.09;100.00;101449.53;5036901;28;20049;-65
2023/05/07 01:39:30;;;;;;;11.38;5.78;;;;;;;15.08;100.00;101454.22;5054951;28;20053;-64
2023/05/07 01:41:57;;;;;;;8.77;5.88;;;;;;;15.07;100.00;101452.56;5037996;28;20103;-66
2023/05/07 01:44:25;;;;;;;11.93;5.47;;;;;;;15.09;100.00;101446.78;5054131;28;20049;-64
2023/05/07 01:46:54;;;;;;;9.90;6.03;;;;;;;15.10;100.00;101448.44;5021415;28;20453;-65
2023/05/07 01:49:22;;;;;;;11.18;6.20;;;;;;;15.09;100.00;101444.06;5056104;28;20455;-65
2023/05/07 01:51:50;;;;;;;13.07;6.30;;;;;;;15.07;100.00;101440.75;5054958;28;20041;-65
2023/05/07 01:54:18;;;;;;;12.13;6.60;;;;;;;15.04;100.00;101435.84;5055707;28;20049;-64
2023/05/07 01:56:48;;;;;;;11.07;6.85;;;;;;;15.01;100.00;101430.91;5053338;28;20120;-65
2023/05/07 01:59:16;;;;;;;11.38;7.07;;;;;;;14.95;100.00;101435.63;5053322;28;20041;-64
2023/05/07 02:01:44;;;;;;;12.10;7.15;;;;;;;14.93;100.00;101429.59;5054266;28;20548;-64
2023/05/07 02:04:12;;;;;;;12.00;7.18;;;;;;;14.96;100.00;101430.94;5041749;28;20597;-64
2023/05/07 02:06:40;;;;;;;10.18;6.65;;;;;;;14.99;100.00;101435.88;5034504;28;20072;-65
2023/05/07 02:09:10;;;;;;;11.52;7.40;;;;;;;15.00;100.00;101434.78;5041377;28;20098;-65
2023/05/07 02:11:41;;;;;;;12.65;7.50;;;;;;;15.01;100.00;101439.97;5054129;28;20049;-65
2023/05/07 02:14:09;;;;;;;10.73;6.95;;;;;;;15.00;100.00;101441.06;5033640;28;20056;-64
2023/05/07 02:16:37;;;;;;;11.75;7.75;;;;;;;14.98;100.00;101436.97;5033897;28;20486;-65
2023/05/07 02:19:05;;;;;;;11.98;7.80;;;;;;;14.98;100.00;101446.00;5056002;28;20048;-64
2023/05/07 02:21:32;;;;;;;15.32;8.07;;;;;;;14.97;100.00;101440.84;5066875;28;20153;-65
2023/05/07 02:24:00;;;;;;;12.98;8.20;;;;;;;14.93;100.00;101426.03;5053725;28;20059;-65
2023/05/07 02:26:28;;;;;;;10.93;7.53;;;;;;;14.92;100.00;101436.19;5036928;28;20405;-65
2023/05/07 02:28:55;;;;;;;12.70;8.45;;;;;;;14.91;100.00;101438.13;5041834;28;20049;-65
2023/05/07 02:31:24;;;;;;;19.73;8.80;;;;;;;14.91;100.00;101431.78;5066195;28;20059;-64
2023/05/07 02:33:52;;;;;;;12.05;7.75;;;;;;;14.92;100.00;101438.94;5053491;28;20044;-65
2023/05/07 02:36:20;;;;;;;12.02;7.57;;;;;;;14.93;100.00;101432.31;5054139;28;20048;-65
2023/05/07 02:38:56;;;;;;;11.82;8.15;;;;;;;14.93;100.00;101439.75;5063591;28;20457;-65
2023/05/07 02:41:23;;;;;;;13.80;7.90;;;;;;;14.90;100.00;101441.94;5073503;28;20048;-65
2023/05/07 02:43:51;;;;;;;12.85;8.60;;;;;;;14.88;100.00;101433.16;5073243;28;20037;-65
2023/05/07 02:46:19;;;;;;;19.52;8.93;;;;;;;14.85;100.00;101428.25;5040720;28;20143;-65
2023/05/07 02:48:52;;;;;;;12.95;8.30;;;;;;;14.84;100.00;101426.63;5058184;28;20048;-64
2023/05/07 02:51:21;;;;;;;14.75;7.65;;;;;;;14.85;100.00;101433.75;5059717;28;20069;-64
2023/05/07 02:53:53;;;;;;;16.25;7.28;;;;;;;14.89;100.00;101440.31;5042150;28;20077;-65
2023/05/07 02:56:22;;;;;;;12.50;8.13;;;;;;;14.94;100.00;101441.41;5038760;28;20073;-65
2023/05/07 02:58:50;;;;;;;13.32;8.38;;;;;;;14.98;100.00;101440.53;5063743;28;20173;-65
2023/05/07 03:01:20;;;;;;;13.70;9.32;;;;;;;14.99;100.00;101438.63;5051204;28;20060;-64
2023/05/07 03:04:02;;;;;;;11.57;8.55;;;;;;;14.99;100.00;101438.63;5053267;28;20047;-65
2023/05/07 03:06:30;;;;;;;12.45;8.30;;;;;;;14.99;100.00;101438.63;5037142;28;20123;-68
2023/05/07 03:08:57;;;;;;;12.40;8.68;;;;;;;14.97;100.00;101446.31;5053425;28;20037;-62
2023/05/07 03:11:25;;;;;;;13.55;9.57;;;;;;;14.94;100.00;101446.88;5037027;28;20047;-65
2023/05/07 03:13:53;;;;;;;13.70;9.13;;;;;;;14.90;100.00;101441.94;5053671;28;20059;-64
2023/05/07 03:16:22;;;;;;;13.48;8.93;;;;;;;14.89;100.00;101439.50;5055302;28;20123;-64
2023/05/07 03:18:49;;;;;;;14.98;9.23;;;;;;;14.87;100.00;101438.97;5051469;28;20037;-66
2023/05/07 03:21:17;;;;;;;15.60;9.80;;;;;;;14.85;100.00;101432.94;5046172;28;20056;-65
2023/05/07 03:23:45;;;;;;;12.93;8.82;;;;;;;14.83;100.00;101429.63;5059893;28;20053;-64
2023/05/07 03:26:13;;;;;;;13.13;9.18;;;;;;;14.82;100.00;101436.25;5054807;28;20059;-64
2023/05/07 03:28:41;;;;;;;13.55;8.98;;;;;;;14.82;100.00;101428.00;5042848;28;20112;-65
2023/05/07 03:31:13;;;;;;;13.95;9.50;;;;;;;14.83;100.00;101421.41;5047485;28;20046;-64
2023/05/07 03:33:54;;;;;;;13.77;9.90;;;;;;;14.82;100.00;101423.34;5037716;28;20393;-64
2023/05/07 03:36:23;;;;;;;14.05;9.85;;;;;;;14.83;100.00;101430.44;5033704;28;20445;-64
2023/05/07 03:38:51;;;;;;;14.98;9.50;;;;;;;14.87;100.00;101436.22;5016758;28;20048;-65
2023/05/07 03:41:22;;;;;;;13.40;9.52;;;;;;;14.88;100.00;101430.44;5032562;28;20049;-65
2023/05/07 03:43:50;;;;;;;17.10;11.02;;;;;;;14.89;100.00;101434.81;5031800;28;20092;-64
2023/05/07 03:46:18;;;;;;;14.25;10.45;;;;;;;14.88;100.00;101432.34;5048889;28;20076;-64
2023/05/07 03:48:45;;;;;;;14.73;10.40;;;;;;;14.85;100.00;101422.78;5031926;28;20049;-66
2023/05/07 03:51:15;;;;;;;16.85;11.50;;;;;;;14.84;100.00;101420.28;5032646;28;20065;-64
2023/05/07 03:53:42;;;;;;;15.32;10.80;;;;;;;14.82;100.00;101417.03;5015961;28;20489;-65
2023/05/07 03:56:10;;;;;;;19.27;11.13;;;;;;;14.78;100.00;101422.25;5033612;28;20432;-65
2023/05/07 03:58:40;;;;;;;15.55;10.70;;;;;;;14.77;100.00;101426.13;5065306;28;20052;-66
2023/05/07 04:01:10;;;;;;;14.07;10.70;;;;;;;14.78;100.00;101435.97;5051196;28;20068;-66
2023/05/07 04:03:38;;;;;;;18.40;11.40;;;;;;;14.81;100.00;101437.31;5034119;28;20079;-65
2023/05/07 04:06:06;;;;;;;16.58;11.38;;;;;;;14.81;100.00;101442.81;5050255;28;20061;-68
2023/05/07 04:08:35;;;;;;;17.15;11.27;;;;;;;14.80;100.00;101450.22;5014946;28;20049;-64
2023/05/07 04:11:04;;;;;;;17.75;11.02;;;;;;;14.76;100.00;101457.38;5014250;28;20088;-65
2023/05/07 04:13:33;;;;;;;13.73;10.80;;;;;;;14.75;100.00;101457.66;5030052;28;20127;-64
2023/05/07 04:16:04;;;;;;;16.85;10.23;;;;;;;14.72;100.00;101450.81;5049611;28;20132;-65
2023/05/07 04:18:35;;;;;;;14.68;10.57;;;;;;;14.73;100.00;101452.44;5053272;28;20423;-65
2023/05/07 04:21:02;;;;;;;15.70;11.02;;;;;;;14.75;100.00;101453.00;5053500;28;20044;-65
2023/05/07 04:23:30;;;;;;;17.50;11.60;;;;;;;14.76;100.00;101451.06;5048157;28;20072;-65
2023/05/07 04:26:03;;;;;;;17.08;11.05;;;;;;;14.73;100.00;101452.44;5032416;28;20096;-64
2023/05/07 04:28:40;;;;;;;17.95;11.30;;;;;;;14.72;100.00;101450.81;5052624;28;20457;-66
2023/05/07 04:31:08;;;;;;;16.60;11.52;;;;;;;14.72;100.00;101449.97;5035052;28;20106;-65
2023/05/07 04:33:37;;;;;;;15.55;11.25;;;;;;;14.68;100.00;101450.56;5053054;28;20118;-65
2023/05/07 04:36:08;;;;;;;14.48;11.18;;;;;;;14.66;100.00;101455.50;5039998;28;20103;-65
2023/05/07 04:38:42;;;;;;;20.23;11.85;;;;;;;14.67;100.00;101454.41;5075069;28;20481;-65
2023/05/07 04:41:12;;;;;;;16.85;11.73;;;;;;;14.65;100.00;101455.78;5075295;28;20054;-65
2023/05/07 04:43:41;;;;;;;13.38;11.00;;;;;;;14.63;100.00;101453.31;5075192;28;20049;-65
2023/05/07 04:46:10;;;;;;;15.63;11.30;;;;;;;14.64;100.00;101454.94;5053568;28;20050;-66
2023/05/07 04:48:38;;;;;;;16.10;10.98;;;;;;;14.67;100.00;101451.66;5056192;28;20049;-64
2023/05/07 04:51:07;;;;;;;18.38;12.18;;;;;;;14.68;100.00;101463.44;5038718;28;20049;-64
2023/05/07 04:53:35;;;;;;;15.35;12.32;;;;;;;14.65;100.00;101458.53;5055262;28;20106;-64
2023/05/07 04:56:03;;;;;;;18.35;13.45;;;;;;;14.64;100.00;101459.63;5055531;28;20044;-65
2023/05/07 04:58:37;;;;;;;16.70;12.57;;;;;;;14.65;100.00;101466.75;5037510;28;20045;-63
2023/05/07 05:01:05;;;;;;;17.13;12.30;;;;;;;14.64;100.00;101459.63;5034897;28;20057;-65
2023/05/07 05:03:33;;;;;;;18.88;12.80;;;;;;;14.65;100.00;101466.75;5035253;28;20076;-66
2023/05/07 05:06:02;;;;;;;17.63;12.20;;;;;;;14.66;100.00;101463.72;5042202;28;20032;-66
2023/05/07 05:08:33;;;;;;;19.17;12.98;;;;;;;14.69;100.00;101473.31;5043267;28;20048;-66
2023/05/07 05:11:03;;;;;;;17.02;13.15;;;;;;;14.73;100.00;101473.59;5054529;28;20128;-66
2023/05/07 05:13:34;;;;;;;15.38;12.95;;;;;;;14.72;100.00;101477.41;5054980;28;20072;-66
2023/05/07 05:16:08;;;;;;;19.33;12.68;;;;;;;14.73;100.00;101474.41;5042674;28;20070;-65
2023/05/07 05:18:36;;;;;;;15.98;12.38;;;;;;;14.75;100.00;101480.44;5062676;28;20053;-66
2023/05/07 05:21:03;;;;;;;15.15;12.82;;;;;;;14.75;100.00;101480.44;5037728;28;20045;-66
2023/05/07 05:23:32;;;;;;;18.13;12.85;;;;;;;14.77;100.00;101486.47;5054227;28;20446;-67
2023/05/07 05:26:00;;;;;;;16.25;13.05;;;;;;;14.77;100.00;101483.72;5036510;28;20048;-66
2023/05/07 05:28:31;;;;;;;19.55;13.48;;;;;;;14.77;100.00;101491.09;5034573;28;20057;-65
2023/05/07 05:30:59;;;;;;;15.40;12.93;;;;;;;14.76;100.00;101487.56;5056105;28;20102;-66
2023/05/07 05:33:30;;;;;;;16.10;12.75;;;;;;;14.78;100.00;101488.09;5054012;28;20563;-66
2023/05/07 05:36:03;;;;;;;18.45;12.90;;;;;;;14.80;100.00;101494.13;5054042;28;20505;-66
2023/05/07 05:38:31;;;;;;;15.98;12.90;;;;;;;14.83;100.00;101490.81;5052726;28;20049;-66
2023/05/07 05:40:59;;;;;;;17.13;13.18;;;;;;;14.81;100.00;101498.50;5037061;28;20092;-64
2023/05/07 05:43:29;;;;;;;17.23;12.88;;;;;;;14.81;100.00;101505.91;5054059;28;20037;-63
2023/05/07 05:45:57;;;;;;;16.38;12.95;;;;;;;14.82;100.00;101502.91;5054422;28;20041;-65
2023/05/07 05:48:25;;;;;;;16.45;14.00;;;;;;;14.82;100.00;101505.66;5052894;28;20064;-64
2023/05/07 05:50:53;;;;;;;17.00;13.57;;;;;;;14.84;100.00;101508.94;5054272;28;20045;-65
2023/05/07 05:53:21;;;;;;;15.65;12.95;;;;;;;14.85;100.00;101509.75;5021822;28;20049;-65
2023/05/07 05:55:49;;;;;;;17.90;12.90;;;;;;;14.83;100.00;101507.28;5043549;28;20044;-66
2023/05/07 05:58:17;;;;;;;16.92;12.57;;;;;;;14.84;100.00;101508.09;5032863;28;20037;-65
2023/05/07 06:00:52;;;;;;;16.88;12.55;;;;;;;14.86;100.00;101504.00;5053193;28;20040;-65
2023/05/07 06:03:22;;;;;;;16.20;12.65;;;;;;;14.87;100.00;101508.38;5021439;28;20051;-66
2023/05/07 06:05:51;;;;;;;17.13;14.00;;;;;;;14.89;100.00;101502.59;5038621;28;20075;-65
2023/05/07 06:08:21;;;;;;;17.75;12.27;;;;;;;14.88;100.00;101499.03;5052123;28;20385;-66
2023/05/07 06:10:48;;;;;;;18.80;13.27;;;;;;;14.87;100.00;101497.41;5049067;28;20116;-66
2023/05/07 06:13:16;;;;;;;16.50;12.90;;;;;;;14.91;100.00;101503.13;5037032;28;20076;-65
2023/05/07 06:15:44;;;;;;;17.85;13.48;;;;;;;14.95;100.00;101495.16;5052993;28;20036;-65
2023/05/07 06:18:13;;;;;;;15.63;12.88;;;;;;;14.94;100.00;101497.09;5037416;28;20052;-65
2023/05/07 06:20:41;;;;;;;18.33;13.38;;;;;;;14.94;100.00;101508.06;5053519;28;20544;-65
2023/05/07 06:23:17;;;;;;;22.02;14.23;;;;;;;14.96;100.00;101507.78;5053413;28;20045;-65
2023/05/07 06:25:51;;;;;;;17.75;13.15;;;;;;;14.94;100.00;101512.75;5054612;28;20067;-65
2023/05/07 06:28:23;;;;;;;18.52;13.57;;;;;;;14.97;100.00;101512.19;5037388;28;20041;-65
2023/05/07 06:30:52;;;;;;;15.35;12.02;;;;;;;14.99;100.00;101515.47;5051817;28;20075;-65
2023/05/07 06:33:19;;;;;;;19.45;14.07;;;;;;;15.01;100.00;101507.75;5053141;28;20053;-65
2023/05/07 06:35:47;;;;;;;16.75;11.85;;;;;;;15.01;100.00;101505.00;5061598;28;20102;-65
2023/05/07 06:38:15;;;;;;;18.63;13.95;;;;;;;15.01;100.00;101502.25;5073349;28;20056;-66
2023/05/07 06:40:47;;;;;;;18.42;12.80;;;;;;;15.00;100.00;101512.41;5032323;28;20047;-65
2023/05/07 06:43:15;;;;;;;18.92;13.30;;;;;;;15.01;100.00;101515.97;5051023;28;20052;-65
2023/05/07 06:45:48;;;;;;;23.48;14.48;;;;;;;15.01;100.00;101518.72;5052768;28;20405;-65
2023/05/07 06:48:16;;;;;;;17.30;12.80;;;;;;;15.03;100.00;101516.53;5051616;28;20075;-65
2023/05/07 06:50:52;;;;;;;16.10;12.50;;;;;;;15.03;100.00;101517.38;5053182;28;20429;-66
2023/05/07 06:53:21;;;;;;;16.60;11.45;;;;;;;15.08;100.00;101522.00;5033000;28;20053;-65
2023/05/07 06:55:50;;;;;;;17.02;11.88;;;;;;;15.08;100.00;101519.25;5047152;28;20040;-65
2023/05/07 06:58:21;;;;;;;16.02;11.50;;;;;;;15.09;100.00;101520.91;5070387;28;20049;-66
2023/05/07 07:00:49;;;;;;;18.92;12.57;;;;;;;15.12;100.00;101520.34;5052257;28;20099;-66
2023/05/07 07:03:17;;;;;;;17.33;11.77;;;;;;;15.12;100.00;101525.81;5036272;28;20048;-65
2023/05/07 07:05:46;;;;;;;15.68;11.23;;;;;;;15.13;100.00;101522.00;5057943;28;20044;-66
2023/05/07 07:08:14;;;;;;;16.55;11.40;;;;;;;15.12;100.00;101531.31;5053043;28;20049;-65
2023/05/07 07:10:42;;;;;;;17.15;10.80;;;;;;;15.10;100.00;101533.50;5038673;28;20094;-64
2023/05/07 07:13:09;;;;;;;16.95;11.73;;;;;;;15.10;100.00;101537.09;5057239;28;20063;-63
2023/05/07 07:15:37;;;;;;;16.05;11.93;;;;;;;15.10;100.00;101534.38;5054146;28;20056;-63
2023/05/07 07:18:05;;;;;;;16.73;12.65;;;;;;;15.09;100.00;101532.69;5031327;28;20061;-64
2023/05/07 07:20:33;;;;;;;19.33;12.60;;;;;;;15.13;100.00;101538.47;5046140;28;20036;-65
2023/05/07 07:23:01;;;;;;;19.00;13.15;;;;;;;15.16;100.00;101526.91;5058633;28;20048;-63
2023/05/07 07:25:29;;;;;;;16.08;12.00;;;;;;;15.18;100.00;101524.72;5068967;28;20045;-64
2023/05/07 07:27:57;;;;;;;16.58;11.70;;;;;;;15.21;100.00;101528.81;5067766;28;20056;-64
2023/05/07 07:30:26;;;;;;;17.98;12.60;;;;;;;15.23;100.00;101527.44;5052260;28;20084;-64
2023/05/07 07:32:54;;;;;;;15.50;11.75;;;;;;;15.24;100.00;101531.00;5052327;28;20045;-64
2023/05/07 07:35:22;;;;;;;18.63;13.35;;;;;;;15.24;100.00;101533.72;5059330;28;20445;-68
2023/05/07 07:37:52;;;;;;;18.30;13.55;;;;;;;15.23;100.00;101541.16;5017248;28;20049;-65
2023/05/07 07:40:20;;;;;;;19.25;14.57;;;;;;;15.23;100.00;101538.41;5029777;28;20049;-65
2023/05/07 07:42:49;;;;;;;19.42;14.02;;;;;;;15.23;100.00;101538.41;5036130;28;20042;-66
2023/05/07 07:45:17;;;;;;;19.90;14.13;;;;;;;15.23;100.00;101541.16;5048403;28;20041;-66
2023/05/07 07:47:47;;;;;;;19.67;13.57;;;;;;;15.24;100.00;101540.03;5036228;28;20111;-65
2023/05/07 07:50:15;;;;;;;19.02;14.18;;;;;;;15.27;100.00;101539.50;5048444;28;20103;-64
2023/05/07 07:53:00;;;;;;;22.10;14.38;;;;;;;15.32;100.00;101541.38;5035149;28;20037;-64
2023/05/07 07:55:28;;;;;;;16.80;13.13;;;;;;;15.30;100.00;101549.91;5039605;28;20041;-65
2023/05/07 07:57:59;;;;;;;17.20;12.82;;;;;;;15.34;100.00;101553.75;5051729;28;20155;-65
2023/05/07 08:00:27;;;;;;;17.52;12.07;;;;;;;15.40;100.00;101543.53;5050817;28;20049;-65
2023/05/07 08:02:56;;;;;;;17.95;11.48;;;;;;;15.46;100.00;101549.81;5051577;28;20080;-66
2023/05/07 08:05:30;;;;;;;20.40;12.27;;;;;;;15.51;100.00;101549.78;5053215;28;20056;-65
2023/05/07 08:07:59;;;;;;;14.38;11.32;;;;;;;15.59;100.00;101549.22;5036057;28;20045;-65
2023/05/07 08:10:34;;;;;;;16.73;10.95;;;;;;;15.63;100.00;101555.75;5055602;28;20091;-64
2023/05/07 08:13:07;;;;;;;21.38;11.15;;;;;;;15.69;100.00;101554.63;5040376;28;20056;-67
2023/05/07 08:15:37;;;;;;;14.85;9.65;;;;;;;15.75;100.00;101560.94;5039241;28;20102;-65
2023/05/07 08:18:09;;;;;;;16.33;11.32;;;;;;;15.77;100.00;101553.22;5034824;28;20048;-66
2023/05/07 08:20:39;;;;;;;19.33;11.82;;;;;;;15.80;100.00;101552.66;5035989;28;20042;-66
2023/05/07 08:23:09;;;;;;;16.17;11.40;;;;;;;15.82;100.00;101555.13;5037127;28;20529;-66
2023/05/07 08:25:39;;;;;;;16.90;11.05;;;;;;;15.84;100.00;101558.41;5037298;28;20088;-65
2023/05/07 08:28:08;;;;;;;15.48;11.30;;;;;;;15.86;100.00;101553.47;5021981;28;20060;-66
2023/05/07 08:30:38;;;;;;;14.82;10.95;;;;;;;15.87;100.00;101547.66;5031093;28;20108;-66
2023/05/07 08:33:09;;;;;;;18.35;11.57;;;;;;;15.90;100.00;101560.03;5035857;28;20072;-66
2023/05/07 08:35:37;;;;;;;15.13;10.07;;;;;;;15.90;100.00;101560.84;5037317;28;20041;-66
2023/05/07 08:38:06;;;;;;;14.77;10.82;;;;;;;15.96;100.00;101556.13;5039454;28;20127;-65
2023/05/07 08:40:38;;;;;;;14.05;11.13;;;;;;;16.03;100.00;101553.88;5055101;28;20072;-65
2023/05/07 08:43:13;;;;;;;15.83;12.43;;;;;;;16.07;100.00;101552.19;5061959;28;20098;-66
2023/05/07 08:45:41;;;;;;;16.52;11.57;;;;;;;16.08;100.00;101555.75;5078226;28;20049;-65
2023/05/07 08:48:18;;;;;;;18.65;11.25;;;;;;;16.13;100.00;101556.53;5060102;28;20144;-66
2023/05/07 08:50:59;;;;;;;17.58;11.57;;;;;;;16.23;100.00;101550.13;5036945;28;20056;-66
2023/05/07 08:53:26;;;;;;;17.15;10.80;;;;;;;16.30;100.00;101553.38;5021747;28;20490;-65
2023/05/07 08:55:54;;;;;;;15.32;11.10;;;;;;;16.35;100.00;101552.50;5045161;28;20066;-65
2023/05/07 08:58:22;;;;;;;12.73;9.52;;;;;;;16.39;100.00;101556.31;5056611;28;20123;-65
2023/05/07 09:00:52;;;;;;;15.60;10.38;;;;;;;16.39;100.00;101559.06;5053163;28;20694;-66
2023/05/07 09:03:20;;;;;;;14.02;10.07;;;;;;;16.41;100.00;101565.09;5022580;28;20049;-66
2023/05/07 09:05:51;;;;;;;16.65;10.48;;;;;;;16.43;100.00;101564.81;5059354;28;20072;-66
2023/05/07 09:08:26;;;;;;;17.45;10.10;;;;;;;16.43;100.00;101562.91;5054153;28;20056;-66
2023/05/07 09:10:55;;;;;;;14.57;10.38;;;;;;;16.46;100.00;101562.31;5036319;28;20049;-66
2023/05/07 09:13:23;;;;;;;15.10;10.23;;;;;;;16.49;100.00;101558.16;5054118;28;20041;-66
2023/05/07 09:15:51;;;;;;;15.35;10.70;;;;;;;16.50;100.00;101563.38;5054284;28;20080;-66
2023/05/07 09:18:20;;;;;;;13.95;9.90;;;;;;;16.53;100.00;101568.28;5061711;28;20057;-65
2023/05/07 09:20:49;;;;;;;17.13;10.38;;;;;;;16.57;100.00;101555.59;5034634;28;20045;-65
2023/05/07 09:23:19;;;;;;;14.73;10.85;;;;;;;16.64;100.00;101555.25;5018282;28;20084;-65
2023/05/07 09:25:47;;;;;;;15.40;11.30;;;;;;;16.66;100.00;101558.53;5036349;28;20095;-66
2023/05/07 09:28:21;;;;;;;14.38;10.30;;;;;;;16.68;100.00;101567.31;5055036;28;20114;-66
2023/05/07 09:30:49;;;;;;;14.10;9.90;;;;;;;16.69;100.00;101563.47;5021034;28;20401;-66
2023/05/07 09:33:17;;;;;;;14.88;10.35;;;;;;;16.70;100.00;101556.03;5037101;28;20065;-65
2023/05/07 09:35:52;;;;;;;23.70;10.55;;;;;;;16.73;100.00;101566.44;5055607;28;20069;-67
2023/05/07 09:38:22;;;;;;;14.57;10.93;;;;;;;16.76;100.00;101563.09;5052733;28;20131;-66
2023/05/07 09:41:15;;;;;;;15.07;11.13;;;;;;;16.80;100.00;101559.50;5034599;28;20041;-66
2023/05/07 09:43:54;;;;;;;16.35;11.15;;;;;;;16.84;100.00;101565.25;5045523;28;20158;-67
2023/05/07 09:46:29;;;;;;;14.40;10.35;;;;;;;16.87;100.00;101558.34;5021585;28;20061;-66
2023/05/07 09:49:02;;;;;;;16.02;10.55;;;;;;;16.87;100.00;101563.84;5054201;28;20099;-67
2023/05/07 09:51:49;;;;;;;14.10;10.80;;;;;;;16.90;100.00;101564.06;5034426;28;20092;-67
2023/05/07 09:54:19;;;;;;;15.45;10.18;;;;;;;16.94;100.00;101561.56;5008642;28;20073;-66
2023/05/07 09:56:49;;;;;;;15.82;11.07;;;;;;;16.97;100.00;101564.53;5046213;28;20053;-66
2023/05/07 09:59:19;;;;;;;14.07;11.52;;;;;;;17.01;100.00;101565.59;5054770;28;20523;-67
2023/05/07 10:01:48;;;;;;;15.45;10.95;;;;;;;17.08;100.00;101564.41;5017376;28;20033;-67
2023/05/07 10:04:17;;;;;;;13.35;9.60;;;;;;;17.07;100.00;101563.59;5005386;28;20056;-67
2023/05/07 10:06:47;;;;;;;13.32;9.82;;;;;;;17.10;100.00;101567.69;5036553;28;20033;-68
2023/05/07 10:09:15;;;;;;;14.93;9.93;;;;;;;17.13;100.00;101564.38;5045217;28;20501;-66
2023/05/07 10:11:43;;;;;;;13.80;10.10;;;;;;;17.15;100.00;101570.38;5053627;28;20441;-66
2023/05/07 10:14:11;;;;;;;14.32;9.90;;;;;;;17.17;100.00;101563.50;5037550;28;20080;-66
2023/05/07 10:16:41;;;;;;;16.85;10.00;;;;;;;17.19;100.00;101566.75;5037065;28;20420;-68
2023/05/07 10:19:13;;;;;;;15.18;10.95;;;;;;;17.20;100.00;101567.59;5068113;28;20047;-67
2023/05/07 10:21:55;;;;;;;15.77;10.55;;;;;;;17.21;100.00;101564.53;5020400;28;20045;-66
2023/05/07 10:24:37;;;;;;;17.48;10.80;;;;;;;17.26;100.00;101560.91;5017249;28;20045;-65
2023/05/07 10:27:14;;;;;;;16.45;10.95;;;;;;;17.31;100.00;101563.59;5033337;28;20057;-66
2023/05/07 10:30:33;;;;;;;15.57;10.40;;;;;;;17.36;100.00;101566.25;5034016;28;20077;-66
2023/05/07 10:33:07;;;;;;;18.85;11.57;;;;;;;17.41;100.00;101566.22;5002962;28;20136;-66
2023/05/07 10:35:42;;;;;;;16.80;10.90;;;;;;;17.46;100.00;101571.66;5033419;28;20049;-66
2023/05/07 10:38:11;;;;;;;15.00;10.63;;;;;;;17.46;100.00;101570.81;5034235;28;20490;-67
2023/05/07 10:40:41;;;;;;;13.35;9.38;;;;;;;17.48;100.00;101570.53;5041813;28;20481;-66
2023/05/07 10:43:10;;;;;;;12.55;9.23;;;;;;;17.48;100.00;101573.28;5052530;28;20119;-66
2023/05/07 10:46:15;;;;;;;14.82;9.90;;;;;;;17.49;100.00;101574.94;5053876;28;20049;-66
2023/05/07 10:49:01;;;;;;;12.65;9.23;;;;;;;17.52;100.00;101569.66;5037403;28;20049;-66
2023/05/07 10:51:36;;;;;;;14.30;9.48;;;;;;;17.55;100.00;101569.03;5034396;28;20124;-67
2023/05/07 10:54:12;;;;;;;14.20;9.35;;;;;;;17.56;100.00;101569.88;5017534;28;20095;-67
2023/05/07 10:56:47;;;;;;;14.07;9.50;;;;;;;17.56;100.00;101573.47;5040046;28;20044;-67
2023/05/07 10:59:33;;;;;;;13.15;9.07;;;;;;;17.57;100.00;101569.56;5039437;28;20046;-66
2023/05/07 11:02:15;;;;;;;13.93;9.85;;;;;;;17.61;100.00;101569.81;5054344;28;20099;-66
2023/05/07 11:05:31;;;;;;;14.20;10.07;;;;;;;17.64;100.00;101560.94;5056067;28;20056;-66
2023/05/07 11:08:11;;;;;;;13.43;8.63;;;;;;;17.66;100.00;101564.22;4993686;28;20061;-67
2023/05/07 11:10:54;;;;;;;16.05;10.10;;;;;;;17.67;100.00;101561.16;5052770;28;20049;-67
2023/05/07 11:13:47;;;;;;;16.42;10.57;;;;;;;17.73;100.00;101561.91;5067815;28;20060;-63
2023/05/07 11:16:24;;;;;;;12.15;9.00;;;;;;;17.77;100.00;101560.19;5064755;28;20052;-65
2023/05/07 11:19:03;;;;;;;14.18;9.95;;;;;;;17.77;100.00;101560.19;5039609;28;20029;-63